createdAt,value
2018-05-26T00:00:34.093Z,67.49
2018-05-26T00:01:34.058Z,67.62
2018-05-26T00:02:34.046Z,67.94
2018-05-26T00:03:34.040Z,67.73
2018-05-26T00:04:34.069Z,67.75
2018-05-26T00:05:34.093Z,68.08
2018-05-26T00:06:34.076Z,67.88
2018-05-26T00:07:34.084Z,67.8
2018-05-26T00:08:34.062Z,67.91
2018-05-26T00:09:34.068Z,67.74
2018-05-26T00:10:34.093Z,67.55
2018-05-26T00:11:34.068Z,67.37
2018-05-26T00:12:34.091Z,67.46
2018-05-26T00:13:34.055Z,67.62
2018-05-26T00:14:34.067Z,67.75
2018-05-26T00:15:34.053Z,67.39
2018-05-26T00:16:34.095Z,67.55
2018-05-26T00:17:34.120Z,67.32
2018-05-26T00:18:34.092Z,67.75
2018-05-26T00:19:34.086Z,67.32
2018-05-26T00:20:34.055Z,67.19
2018-05-26T00:21:34.070Z,67.71
2018-05-26T00:22:34.065Z,67.71
2018-05-26T00:23:34.075Z,67.67
2018-05-26T00:24:34.101Z,67.4
2018-05-26T00:25:34.104Z,67.74
2018-05-26T00:26:34.077Z,67.46
2018-05-26T00:27:34.075Z,67.46
2018-05-26T00:28:34.079Z,67.59
2018-05-26T00:29:34.085Z,68.31
2018-05-26T00:30:34.095Z,68.09
2018-05-26T00:31:34.108Z,67.9
2018-05-26T00:32:34.075Z,67.7
2018-05-26T00:33:34.058Z,67.77
2018-05-26T00:34:34.078Z,67.9
2018-05-26T00:35:34.068Z,67.65
2018-05-26T00:36:34.073Z,67.33
2018-05-26T00:37:34.057Z,67.96
2018-05-26T00:38:34.063Z,68.02
2018-05-26T00:39:34.079Z,67.67
2018-05-26T00:40:34.072Z,67.54
2018-05-26T00:41:34.091Z,67.65
2018-05-26T00:42:34.144Z,67.39
2018-05-26T00:43:34.090Z,67.91
2018-05-26T00:44:34.246Z,67.88
2018-05-26T00:45:34.116Z,67.84
2018-05-26T00:46:34.166Z,67.55
2018-05-26T00:47:34.071Z,67.34
2018-05-26T00:48:34.068Z,67.75
2018-05-26T00:49:34.066Z,68.5
2018-05-26T00:50:34.074Z,67.78
2018-05-26T00:51:34.147Z,67.55
2018-05-26T00:52:34.086Z,67.57
2018-05-26T00:53:34.089Z,67.57
2018-05-26T00:54:34.100Z,67.77
2018-05-26T00:55:34.080Z,67.7
2018-05-26T00:56:34.085Z,67.51
2018-05-26T00:57:34.117Z,67.57
2018-05-26T00:58:34.100Z,67.77
2018-05-26T00:59:34.145Z,67.59
2018-05-26T01:00:34.081Z,67.52
2018-05-26T01:01:34.116Z,67.19
2018-05-26T01:02:34.145Z,67.14
2018-05-26T01:03:34.111Z,67.47
2018-05-26T01:04:34.239Z,67.59
2018-05-26T01:05:34.128Z,67.6
2018-05-26T01:06:34.101Z,67.51
2018-05-26T01:07:34.102Z,67.47
2018-05-26T01:08:34.156Z,67.37
2018-05-26T01:09:34.218Z,67.49
2018-05-26T01:10:34.105Z,67.16
2018-05-26T01:11:34.112Z,67.39
2018-05-26T01:12:34.097Z,67.42
2018-05-26T01:13:34.095Z,67.38
2018-05-26T01:14:34.100Z,67.4
2018-05-26T01:15:34.117Z,67.26
2018-05-26T01:16:34.119Z,67.26
2018-05-26T01:17:34.528Z,67.45
2018-05-26T01:18:34.272Z,67.42
2018-05-26T01:19:34.086Z,67.22
2018-05-26T01:20:34.084Z,67.34
2018-05-26T01:21:34.083Z,67.03
2018-05-26T01:22:34.097Z,67.12
2018-05-26T01:23:34.096Z,66.95
2018-05-26T01:24:34.120Z,66.85
2018-05-26T01:25:34.090Z,66.89
2018-05-26T01:26:34.111Z,67.21
2018-05-26T01:27:34.150Z,67.02
2018-05-26T01:28:34.119Z,67.02
2018-05-26T01:29:34.103Z,67.05
2018-05-26T01:30:34.193Z,66.8
2018-05-26T01:31:34.115Z,67.11
2018-05-26T01:32:34.127Z,66.79
2018-05-26T01:33:34.388Z,66.84
2018-05-26T01:34:34.120Z,66.98
2018-05-26T01:35:34.103Z,67.05
2018-05-26T01:36:34.091Z,67.17
2018-05-26T01:37:34.111Z,67.01
2018-05-26T01:38:34.113Z,66.92
2018-05-26T01:39:34.104Z,66.88
2018-05-26T01:40:34.117Z,66.87
2018-05-26T01:41:34.126Z,66.89
2018-05-26T01:42:34.135Z,67.08
2018-05-26T01:43:34.115Z,67.15
2018-05-26T01:44:34.141Z,66.91
2018-05-26T01:45:34.127Z,67.09
2018-05-26T01:46:34.123Z,67.06
2018-05-26T01:47:34.152Z,66.86
2018-05-26T01:48:34.137Z,66.92
2018-05-26T01:49:34.154Z,66.93
2018-05-26T01:50:34.155Z,67.02
2018-05-26T01:51:34.106Z,66.98
2018-05-26T01:52:34.175Z,67.04
2018-05-26T01:53:34.103Z,67.18
2018-05-26T01:54:34.141Z,67.23
2018-05-26T01:55:34.127Z,67.12
2018-05-26T01:56:34.104Z,67.04
2018-05-26T01:57:34.151Z,67.06
2018-05-26T01:58:34.146Z,67.39
2018-05-26T01:59:34.137Z,67.27
2018-05-26T02:00:34.142Z,67.19
2018-05-26T02:01:34.120Z,67.07
2018-05-26T02:02:34.127Z,67.14
2018-05-26T02:03:34.138Z,67.35
2018-05-26T02:04:34.147Z,67.28
2018-05-26T02:05:34.182Z,67.44
2018-05-26T02:06:34.115Z,67.13
2018-05-26T02:07:34.126Z,67.28
2018-05-26T02:08:34.124Z,67.4
2018-05-26T02:09:34.278Z,67.24
2018-05-26T02:10:34.310Z,67.47
2018-05-26T02:11:34.130Z,67.43
2018-05-26T02:12:34.189Z,67.4
2018-05-26T02:13:34.120Z,67.37
2018-05-26T02:14:34.138Z,67.27
2018-05-26T02:15:34.130Z,67.5
2018-05-26T02:16:34.176Z,67.44
2018-05-26T02:17:34.181Z,67.18
2018-05-26T02:18:34.137Z,67.36
2018-05-26T02:19:34.309Z,67.01
2018-05-26T02:20:34.197Z,67.27
2018-05-26T02:21:34.140Z,67.34
2018-05-26T02:22:34.180Z,67.21
2018-05-26T02:23:34.112Z,67.3
2018-05-26T02:24:34.491Z,67.56
2018-05-26T02:25:34.142Z,67.7
2018-05-26T02:26:34.399Z,67.62
2018-05-26T02:27:34.140Z,67.58
2018-05-26T02:28:34.146Z,67.58
2018-05-26T02:29:34.158Z,67.53
2018-05-26T02:30:34.124Z,67.54
2018-05-26T02:31:34.175Z,67.75
2018-05-26T02:32:34.147Z,67.74
2018-05-26T02:33:34.175Z,67.67
2018-05-26T02:34:34.313Z,67.71
2018-05-26T02:35:34.168Z,67.67
2018-05-26T02:36:34.175Z,67.81
2018-05-26T02:37:34.181Z,67.81
2018-05-26T02:38:34.122Z,67.92
2018-05-26T02:39:34.138Z,68.06
2018-05-26T02:40:34.136Z,68.14
2018-05-26T02:41:34.131Z,68.37
2018-05-26T02:42:54.414Z,68.02
2018-05-26T02:43:54.416Z,68
2018-05-26T02:44:54.431Z,68.35
2018-05-26T02:45:54.442Z,68.04
2018-05-26T02:46:54.427Z,67.93
2018-05-26T02:47:54.407Z,68.18
2018-05-26T02:48:54.416Z,68.25
2018-05-26T02:49:54.435Z,68.31
2018-05-26T02:50:54.388Z,68.58
2018-05-26T02:51:54.415Z,68.04
2018-05-26T02:52:54.430Z,68.22
2018-05-26T02:53:54.387Z,68.46
2018-05-26T02:54:54.449Z,68.3
2018-05-26T02:55:54.400Z,68.85
2018-05-26T02:56:54.431Z,68.75
2018-05-26T02:57:54.383Z,68.98
2018-05-26T02:58:54.398Z,69.14
2018-05-26T02:59:54.399Z,68.82
2018-05-26T03:00:54.432Z,68.84
2018-05-26T03:01:54.434Z,69.02
2018-05-26T03:02:54.410Z,69.26
2018-05-26T03:03:54.419Z,69.23
2018-05-26T03:04:54.425Z,69.07
2018-05-26T03:05:54.433Z,69.05
2018-05-26T03:06:54.421Z,69.22
2018-05-26T03:07:54.390Z,69.46
2018-05-26T03:08:54.439Z,69.66
2018-05-26T03:09:54.451Z,69.71
2018-05-26T03:10:54.412Z,69.8
2018-05-26T03:11:54.424Z,69.37
2018-05-26T03:12:54.723Z,69.58
2018-05-26T03:13:54.437Z,69.96
2018-05-26T03:14:54.431Z,70.18
2018-05-26T03:15:54.399Z,69.58
2018-05-26T03:16:54.402Z,69.97
2018-05-26T03:17:54.461Z,70.23
2018-05-26T03:18:54.424Z,70.02
2018-05-26T03:19:54.408Z,69.51
2018-05-26T03:20:54.414Z,70.23
2018-05-26T03:21:54.387Z,70.58
2018-05-26T03:22:54.404Z,70.58
2018-05-26T03:23:54.408Z,70.68
2018-05-26T03:24:54.623Z,70.69
2018-05-26T03:25:54.392Z,70.79
2018-05-26T03:26:54.396Z,70.63
2018-05-26T03:27:54.384Z,70.72
2018-05-26T03:28:54.395Z,70.87
2018-05-26T03:29:54.407Z,70.73
2018-05-26T03:30:54.385Z,70.99
2018-05-26T03:31:54.387Z,70.96
2018-05-26T03:32:54.486Z,70.96
2018-05-26T03:33:54.403Z,70.71
2018-05-26T03:34:54.376Z,70.55
2018-05-26T03:35:54.423Z,70.83
2018-05-26T03:36:54.372Z,70.68
2018-05-26T03:37:54.471Z,70.56
2018-05-26T03:38:54.461Z,70.14
2018-05-26T03:39:54.387Z,70.04
2018-05-26T03:40:54.404Z,70.38
2018-05-26T03:41:54.389Z,70.56
2018-05-26T03:42:54.400Z,70.82
2018-05-26T03:43:54.403Z,70.77
2018-05-26T03:44:54.397Z,71.14
2018-05-26T03:45:54.430Z,70.72
2018-05-26T03:46:54.414Z,70.88
2018-05-26T03:47:54.369Z,70.66
2018-05-26T03:48:54.403Z,70.44
2018-05-26T03:49:54.383Z,70.9
2018-05-26T03:50:54.550Z,70.28
2018-05-26T03:51:54.420Z,71.17
2018-05-26T03:52:54.362Z,70.39
2018-05-26T03:53:54.375Z,70.61
2018-05-26T03:54:54.760Z,70.51
2018-05-26T03:55:54.372Z,70.77
2018-05-26T03:56:54.384Z,70.53
2018-05-26T03:57:54.387Z,71.12
2018-05-26T03:58:54.386Z,70.77
2018-05-26T03:59:54.393Z,70.42
2018-05-26T04:00:54.377Z,70.36
2018-05-26T04:01:54.389Z,70.06
2018-05-26T04:02:54.429Z,70.13
2018-05-26T04:03:54.359Z,70.72
2018-05-26T04:04:54.533Z,70.33
2018-05-26T04:05:54.460Z,71.13
2018-05-26T04:06:54.367Z,70.37
2018-05-26T04:07:54.549Z,70.51
2018-05-26T04:08:54.369Z,71.04
2018-05-26T04:09:54.380Z,70.56
2018-05-26T04:10:54.385Z,70.63
2018-05-26T04:11:54.385Z,71.06
2018-05-26T04:12:54.387Z,70.64
2018-05-26T04:13:54.373Z,70.74
2018-05-26T04:14:54.388Z,71.39
2018-05-26T04:15:54.381Z,70.8
2018-05-26T04:16:54.448Z,71.38
2018-05-26T04:17:54.359Z,71.02
2018-05-26T04:18:54.360Z,70.87
2018-05-26T04:19:54.432Z,71.45
2018-05-26T04:20:54.361Z,71.25
2018-05-26T04:21:54.743Z,71.39
2018-05-26T04:22:54.381Z,71.05
2018-05-26T04:23:54.497Z,70.97
2018-05-26T04:24:55.598Z,70.85
2018-05-26T04:25:54.395Z,70.88
2018-05-26T04:26:54.402Z,71.18
2018-05-26T04:27:54.394Z,70.94
2018-05-26T04:28:54.354Z,70.72
2018-05-26T04:29:54.897Z,71.35
2018-05-26T04:30:54.516Z,71.75
2018-05-26T04:31:54.598Z,71.16
2018-05-26T04:32:54.431Z,71.38
2018-05-26T04:33:54.427Z,71.18
2018-05-26T04:34:54.493Z,71.3
2018-05-26T04:35:54.393Z,71.03
2018-05-26T04:36:54.440Z,71.42
2018-05-26T04:37:54.447Z,71.74
2018-05-26T04:38:54.413Z,71.56
2018-05-26T04:39:54.384Z,71.44
2018-05-26T04:40:54.378Z,71.36
2018-05-26T04:41:54.373Z,71.55
2018-05-26T04:42:54.390Z,71.98
2018-05-26T04:43:54.396Z,71.83
2018-05-26T04:44:54.966Z,71.86
2018-05-26T04:45:54.466Z,72.07
2018-05-26T04:46:54.401Z,72.62
2018-05-26T04:47:54.378Z,72.06
2018-05-26T04:48:54.390Z,71.79
2018-05-26T04:49:54.357Z,71.99
2018-05-26T04:50:54.394Z,72.06
2018-05-26T04:51:54.407Z,71.76
2018-05-26T04:52:54.384Z,71.86
2018-05-26T04:53:54.400Z,72.39
2018-05-26T04:54:54.412Z,72.67
2018-05-26T04:55:54.378Z,72.2
2018-05-26T04:56:54.411Z,72.3
2018-05-26T04:57:54.375Z,72.26
2018-05-26T04:58:54.351Z,72.21
2018-05-26T04:59:54.382Z,72.08
2018-05-26T05:00:54.381Z,72.52
2018-05-26T05:01:54.367Z,72.18
2018-05-26T05:02:54.492Z,72.78
2018-05-26T05:03:54.392Z,72.77
2018-05-26T05:04:54.373Z,72.95
2018-05-26T05:05:54.368Z,73.7
2018-05-26T05:06:54.387Z,72.91
2018-05-26T05:07:54.503Z,73.03
2018-05-26T05:08:54.408Z,73.01
2018-05-26T05:09:54.390Z,72.47
2018-05-26T05:10:54.394Z,72.49
2018-05-26T05:11:54.339Z,72.61
2018-05-26T05:12:54.348Z,73.28
2018-05-26T05:13:54.331Z,73.26
2018-05-26T05:14:54.360Z,72.84
2018-05-26T05:15:54.340Z,73.68
2018-05-26T05:16:54.342Z,74
2018-05-26T05:17:54.351Z,73.96
2018-05-26T05:18:54.351Z,73.68
2018-05-26T05:19:54.361Z,73.71
2018-05-26T05:20:54.360Z,73.81
2018-05-26T05:21:54.361Z,73.48
2018-05-26T05:22:54.656Z,73.62
2018-05-26T05:23:54.348Z,73.01
2018-05-26T05:24:54.363Z,73.77
2018-05-26T05:25:54.351Z,73.73
2018-05-26T05:26:54.338Z,73.39
2018-05-26T05:27:54.684Z,73.77
2018-05-26T05:28:54.353Z,73.41
2018-05-26T05:29:54.356Z,73.6
2018-05-26T05:30:54.405Z,73.53
2018-05-26T05:31:55.149Z,72.75
2018-05-26T05:32:54.370Z,73.56
2018-05-26T05:33:54.546Z,73.51
2018-05-26T05:34:54.361Z,73.33
2018-05-26T05:35:54.356Z,73.63
2018-05-26T05:36:54.358Z,73.57
2018-05-26T05:37:54.391Z,73.6
2018-05-26T05:38:54.321Z,73.45
2018-05-26T05:39:54.380Z,73.62
2018-05-26T05:40:54.378Z,73.06
2018-05-26T05:41:54.473Z,73.3
2018-05-26T05:42:54.362Z,72.99
2018-05-26T05:43:54.380Z,72.97
2018-05-26T05:44:54.358Z,73.08
2018-05-26T05:45:54.332Z,73.1
2018-05-26T05:46:54.342Z,73.02
2018-05-26T05:47:54.331Z,73.44
2018-05-26T05:48:54.338Z,73.34
2018-05-26T05:49:54.347Z,73.47
2018-05-26T05:50:54.354Z,73.25
2018-05-26T05:51:54.321Z,73.6
2018-05-26T05:52:54.410Z,72.76
2018-05-26T05:53:54.520Z,72.86
2018-05-26T05:54:54.445Z,72.88
2018-05-26T05:55:54.348Z,72.81
2018-05-26T05:56:54.358Z,72.86
2018-05-26T05:57:54.414Z,73.23
2018-05-26T05:58:54.602Z,73.29
2018-05-26T05:59:54.357Z,72.87
2018-05-26T06:00:54.351Z,72.95
2018-05-26T06:01:54.349Z,72.71
2018-05-26T06:02:54.351Z,73.16
2018-05-26T06:03:54.351Z,72.94
2018-05-26T06:04:54.374Z,73.09
2018-05-26T06:05:54.385Z,72.87
2018-05-26T06:06:54.583Z,73.22
2018-05-26T06:07:54.342Z,73.3
2018-05-26T06:08:54.341Z,72.98
2018-05-26T06:09:54.494Z,72.8
2018-05-26T06:10:54.427Z,72.85
2018-05-26T06:11:54.326Z,72.99
2018-05-26T06:12:54.337Z,73.03
2018-05-26T06:13:54.474Z,72.93
2018-05-26T06:14:54.422Z,72.95
2018-05-26T06:15:54.358Z,73
2018-05-26T06:16:54.352Z,72.92
2018-05-26T06:17:54.720Z,73.17
2018-05-26T06:18:54.367Z,73.32
2018-05-26T06:19:54.337Z,73.03
2018-05-26T06:20:54.343Z,72.89
2018-05-26T06:21:54.370Z,73.07
2018-05-26T06:22:54.312Z,73.22
2018-05-26T06:23:54.340Z,72.92
2018-05-26T06:24:54.309Z,73.16
2018-05-26T06:25:54.347Z,73.08
2018-05-26T06:26:54.307Z,72.96
2018-05-26T06:27:54.321Z,73.05
2018-05-26T06:28:54.316Z,72.88
2018-05-26T06:29:54.326Z,73.2
2018-05-26T06:30:54.327Z,73.44
2018-05-26T06:31:54.337Z,73.49
2018-05-26T06:32:54.310Z,73.16
2018-05-26T06:33:54.320Z,73.58
2018-05-26T06:34:54.415Z,73.46
2018-05-26T06:35:54.327Z,73.45
2018-05-26T06:36:54.307Z,73.29
2018-05-26T06:37:54.383Z,73.11
2018-05-26T06:38:54.309Z,73.34
2018-05-26T06:39:54.351Z,73.01
2018-05-26T06:40:54.380Z,73.58
2018-05-26T06:41:54.324Z,73.55
2018-05-26T06:42:54.317Z,73.56
2018-05-26T06:43:54.301Z,73.7
2018-05-26T06:44:54.318Z,73.54
2018-05-26T06:45:54.322Z,73.51
2018-05-26T06:46:54.514Z,73.53
2018-05-26T06:47:54.328Z,73.3
2018-05-26T06:48:54.654Z,73.51
2018-05-26T06:49:54.312Z,73.37
2018-05-26T06:50:54.450Z,73.3
2018-05-26T06:51:54.339Z,73.06
2018-05-26T06:52:54.330Z,73.28
2018-05-26T06:53:54.423Z,72.85
2018-05-26T06:54:54.300Z,72.94
2018-05-26T06:55:54.639Z,72.56
2018-05-26T06:56:54.307Z,72.72
2018-05-26T06:57:54.324Z,72.43
2018-05-26T06:58:54.341Z,72.73
2018-05-26T06:59:54.291Z,72.71
2018-05-26T07:00:54.551Z,72.63
2018-05-26T07:01:54.300Z,72.52
2018-05-26T07:02:54.311Z,72.65
2018-05-26T07:03:54.306Z,72.77
2018-05-26T07:04:54.469Z,72.74
2018-05-26T07:05:54.590Z,72.82
2018-05-26T07:06:54.328Z,72.46
2018-05-26T07:07:54.302Z,72.53
2018-05-26T07:08:55.156Z,72.51
2018-05-26T07:09:54.294Z,72.42
2018-05-26T07:10:54.285Z,72.05
2018-05-26T07:11:54.291Z,72.14
2018-05-26T07:12:54.338Z,72.29
2018-05-26T07:13:54.325Z,72.11
2018-05-26T07:14:54.294Z,72.22
2018-05-26T07:15:54.344Z,72.21
2018-05-26T07:16:54.306Z,72.6
2018-05-26T07:17:54.286Z,72.34
2018-05-26T07:18:54.300Z,72.55
2018-05-26T07:19:54.295Z,71.91
2018-05-26T07:20:54.301Z,71.56
2018-05-26T07:21:54.314Z,71.68
2018-05-26T07:22:54.575Z,71.7
2018-05-26T07:23:54.324Z,71.42
2018-05-26T07:24:54.381Z,71.04
2018-05-26T07:25:54.308Z,71.2
2018-05-26T07:26:54.323Z,71.27
2018-05-26T07:27:54.314Z,70.96
2018-05-26T07:28:54.297Z,70.68
2018-05-26T07:29:54.329Z,70.44
2018-05-26T07:30:54.327Z,70.45
2018-05-26T07:31:54.277Z,70.42
2018-05-26T07:32:54.274Z,70.02
2018-05-26T07:33:54.266Z,69.57
2018-05-26T07:34:54.367Z,70.16
2018-05-26T07:35:54.990Z,70.62
2018-05-26T07:36:54.278Z,69.91
2018-05-26T07:37:54.288Z,69.64
2018-05-26T07:38:54.332Z,69.4
2018-05-26T07:39:54.311Z,69.4
2018-05-26T07:40:54.368Z,68.86
2018-05-26T07:41:54.275Z,68.73
2018-05-26T07:42:54.436Z,69.08
2018-05-26T07:43:54.308Z,68.99
2018-05-26T07:44:54.284Z,69.06
2018-05-26T07:45:55.265Z,69.5
2018-05-26T07:46:54.317Z,69.08
2018-05-26T07:47:54.286Z,69.31
2018-05-26T07:48:54.305Z,69.32
2018-05-26T07:49:54.282Z,69.06
2018-05-26T07:50:54.645Z,69.2
2018-05-26T07:51:54.287Z,68.79
2018-05-26T07:52:54.284Z,68.52
2018-05-26T07:53:54.819Z,68.49
2018-05-26T07:54:54.304Z,68.66
2018-05-26T07:55:54.276Z,68.43
2018-05-26T07:56:54.276Z,68.78
2018-05-26T07:57:54.736Z,68.47
2018-05-26T07:58:54.293Z,67.98
2018-05-26T07:59:54.382Z,69.01
2018-05-26T08:00:54.354Z,68.75
2018-05-26T08:01:54.404Z,69.04
2018-05-26T08:02:54.318Z,69.07
2018-05-26T08:03:54.291Z,68.92
2018-05-26T08:04:54.297Z,68.35
2018-05-26T08:05:54.287Z,68.12
2018-05-26T08:06:54.294Z,67.57
2018-05-26T08:07:54.294Z,67.34
2018-05-26T08:08:54.282Z,67.32
2018-05-26T08:09:54.261Z,67.61
2018-05-26T08:10:54.342Z,68.15
2018-05-26T08:11:54.289Z,67.23
2018-05-26T08:12:54.274Z,67.49
2018-05-26T08:13:54.318Z,67.68
2018-05-26T08:14:54.299Z,67.53
2018-05-26T08:15:54.256Z,67.14
2018-05-26T08:16:54.422Z,67.04
2018-05-26T08:17:54.279Z,67.11
2018-05-26T08:18:54.320Z,66.99
2018-05-26T08:19:54.287Z,66.51
2018-05-26T08:20:54.290Z,66.99
2018-05-26T08:21:54.294Z,66.39
2018-05-26T08:22:54.311Z,65.83
2018-05-26T08:23:54.262Z,65.9
2018-05-26T08:24:54.294Z,66.16
2018-05-26T08:25:54.453Z,66.23
2018-05-26T08:26:54.278Z,66.11
2018-05-26T08:27:54.265Z,65.93
2018-05-26T08:28:54.343Z,65.81
2018-05-26T08:29:54.403Z,65.59
2018-05-26T08:30:54.432Z,65.92
2018-05-26T08:31:54.251Z,66.12
2018-05-26T08:32:54.263Z,65.5
2018-05-26T08:33:54.385Z,65.47
2018-05-26T08:34:54.269Z,65.68
2018-05-26T08:35:54.305Z,65.3
2018-05-26T08:36:54.264Z,65.19
2018-05-26T08:37:54.299Z,64.43
2018-05-26T08:38:54.757Z,64.6
2018-05-26T08:39:54.809Z,64.13
2018-05-26T08:40:54.265Z,64.36
2018-05-26T08:41:54.265Z,64.1
2018-05-26T08:42:54.290Z,63.98
2018-05-26T08:43:54.785Z,64.02
2018-05-26T08:44:54.291Z,64.82
2018-05-26T08:45:54.315Z,64.31
2018-05-26T08:46:54.255Z,64.67
2018-05-26T08:47:54.300Z,63.97
2018-05-26T08:48:54.273Z,64.33
2018-05-26T08:49:54.263Z,64.6
2018-05-26T08:50:54.285Z,64.46
2018-05-26T08:51:54.263Z,64.15
2018-05-26T08:52:54.264Z,63.18
2018-05-26T08:53:54.301Z,63.18
2018-05-26T08:54:55.852Z,62.6
2018-05-26T08:55:54.269Z,62.57
2018-05-26T08:56:54.271Z,62.78
2018-05-26T08:57:54.257Z,63.76
2018-05-26T08:58:54.354Z,63.11
2018-05-26T08:59:54.433Z,62.1
2018-05-26T09:00:54.285Z,62.8
2018-05-26T09:01:54.261Z,63.26
2018-05-26T09:02:54.251Z,63.39
2018-05-26T09:03:56.479Z,63.54
2018-05-26T09:04:54.295Z,62.08
2018-05-26T09:05:54.251Z,62.7
2018-05-26T09:06:54.265Z,63.31
2018-05-26T09:07:54.271Z,63.44
2018-05-26T09:08:54.254Z,62.76
2018-05-26T09:09:54.271Z,61.5
2018-05-26T09:10:54.371Z,60.73
2018-05-26T09:11:55.589Z,60.34
2018-05-26T09:12:54.273Z,59.28
2018-05-26T09:13:54.259Z,60.5
2018-05-26T09:14:54.312Z,59.68
2018-05-26T09:15:54.609Z,58.74
2018-05-26T09:16:54.283Z,59.17
2018-05-26T09:17:55.776Z,59.48
2018-05-26T09:18:54.284Z,59.79
2018-05-26T09:19:54.280Z,59.91
2018-05-26T09:20:54.302Z,58.84
2018-05-26T09:21:54.321Z,59.29
2018-05-26T09:22:54.260Z,58.89
2018-05-26T09:23:54.271Z,59.25
2018-05-26T09:24:54.237Z,59.38
2018-05-26T09:25:54.236Z,60.43
2018-05-26T09:26:54.248Z,59.63
2018-05-26T09:27:54.246Z,59.78
2018-05-26T09:28:54.265Z,60.39
2018-05-26T09:29:54.259Z,59.89
2018-05-26T09:30:54.267Z,60.63
2018-05-26T09:31:54.252Z,60.26
2018-05-26T09:32:54.226Z,61.68
2018-05-26T09:33:54.286Z,60.92
2018-05-26T09:34:54.259Z,60.44
2018-05-26T09:35:54.259Z,59.01
2018-05-26T09:36:55.017Z,58.83
2018-05-26T09:37:54.299Z,58.54
2018-05-26T09:38:54.354Z,58.54
2018-05-26T09:39:54.231Z,57.94
2018-05-26T09:40:54.448Z,58.46
2018-05-26T09:41:54.430Z,58.04
2018-05-26T09:42:54.270Z,58.43
2018-05-26T09:43:54.259Z,59.14
2018-05-26T09:44:54.264Z,59.16
2018-05-26T09:45:54.276Z,59.21
2018-05-26T09:46:54.325Z,59.17
2018-05-26T09:47:54.331Z,57.44
2018-05-26T09:48:54.293Z,57.29
2018-05-26T09:49:54.244Z,57.72
2018-05-26T09:50:54.264Z,57.09
2018-05-26T09:51:54.274Z,56.38
2018-05-26T09:52:54.288Z,55.5
2018-05-26T09:53:55.385Z,57.06
2018-05-26T09:54:55.187Z,56.44
2018-05-26T09:55:54.375Z,56.97
2018-05-26T09:56:54.378Z,57.23
2018-05-26T09:57:55.922Z,57.45
2018-05-26T09:58:55.710Z,56.56
2018-05-26T09:59:54.249Z,56.17
2018-05-26T10:00:54.291Z,56.07
2018-05-26T10:01:54.313Z,56.06
2018-05-26T10:02:55.968Z,55.91
2018-05-26T10:03:55.873Z,55.97
2018-05-26T10:04:54.345Z,54.77
2018-05-26T10:05:54.306Z,55.65
2018-05-26T10:06:55.520Z,56.59
2018-05-26T10:07:54.319Z,55.09
2018-05-26T10:08:55.599Z,55.83
2018-05-26T10:09:54.331Z,55.47
2018-05-26T10:10:54.377Z,55.75
2018-05-26T10:11:54.815Z,55.17
2018-05-26T10:12:54.286Z,55.34
2018-05-26T10:13:54.401Z,55.23
2018-05-26T10:14:54.300Z,56.24
2018-05-26T10:15:54.313Z,55.12
2018-05-26T10:16:55.748Z,55.64
2018-05-26T10:17:54.338Z,56.42
2018-05-26T10:18:54.738Z,55.94
2018-05-26T10:19:54.394Z,55.69
2018-05-26T10:20:55.779Z,56.07
2018-05-26T10:21:54.357Z,55.93
2018-05-26T10:22:54.364Z,54.68
2018-05-26T10:23:54.288Z,53.92
2018-05-26T10:24:54.379Z,54.32
2018-05-26T10:25:55.804Z,54.41
2018-05-26T10:26:54.389Z,55.1
2018-05-26T10:27:54.288Z,53.75
2018-05-26T10:28:54.296Z,53.35
2018-05-26T10:29:54.415Z,53.49
2018-05-26T10:30:55.930Z,53.71
2018-05-26T10:31:54.355Z,53.26
2018-05-26T10:32:54.321Z,53.47
2018-05-26T10:33:55.557Z,53.72
2018-05-26T10:34:55.689Z,54.36
2018-05-26T10:35:54.340Z,52.34
2018-05-26T10:36:54.335Z,52.96
2018-05-26T10:37:55.506Z,52.3
2018-05-26T10:38:54.219Z,52.29
2018-05-26T10:39:54.373Z,51.76
2018-05-26T10:40:54.273Z,51.17
2018-05-26T10:41:54.292Z,51.38
2018-05-26T10:42:54.204Z,50.89
2018-05-26T10:43:55.238Z,51.1
2018-05-26T10:44:54.405Z,51.58
2018-05-26T10:45:54.208Z,52.28
2018-05-26T10:46:54.301Z,52.22
2018-05-26T10:47:54.229Z,51.42
2018-05-26T10:48:54.248Z,51.67
2018-05-26T10:49:54.490Z,51.51
2018-05-26T10:50:54.400Z,52.78
2018-05-26T10:51:54.213Z,53.01
2018-05-26T10:52:54.365Z,52.59
2018-05-26T10:53:54.275Z,52.44
2018-05-26T10:54:54.339Z,52.99
2018-05-26T10:55:54.483Z,52.76
2018-05-26T10:56:54.288Z,52.73
2018-05-26T10:57:54.297Z,53.35
2018-05-26T10:58:54.234Z,53.72
2018-05-26T10:59:54.293Z,51.96
2018-05-26T11:00:54.210Z,50.7
2018-05-26T11:01:54.316Z,50.72
2018-05-26T11:02:54.234Z,50.6
2018-05-26T11:03:54.298Z,50.05
2018-05-26T11:04:54.448Z,49.16
2018-05-26T11:05:54.223Z,49.63
2018-05-26T11:06:54.623Z,50.23
2018-05-26T11:07:54.238Z,50.87
2018-05-26T11:08:54.363Z,51.57
2018-05-26T11:09:54.217Z,51.77
2018-05-26T11:10:54.378Z,51.5
2018-05-26T11:11:54.325Z,51.42
2018-05-26T11:12:54.343Z,50.83
2018-05-26T11:13:54.399Z,49.15
2018-05-26T11:14:54.874Z,48.13
2018-05-26T11:15:54.242Z,48.19
2018-05-26T11:16:55.340Z,47.24
2018-05-26T11:17:54.626Z,48
2018-05-26T11:18:54.447Z,49.03
2018-05-26T11:19:54.444Z,49.15
2018-05-26T11:20:54.261Z,48.91
2018-05-26T11:21:54.213Z,48.83
2018-05-26T11:22:54.376Z,48.64
2018-05-26T11:23:54.219Z,49.13
2018-05-26T11:24:54.266Z,48.99
2018-05-26T11:25:54.209Z,47.8
2018-05-26T11:26:54.583Z,48.38
2018-05-26T11:27:54.293Z,49.12
2018-05-26T11:28:54.321Z,48.51
2018-05-26T11:29:54.269Z,49.24
2018-05-26T11:30:54.256Z,48.3
2018-05-26T11:31:54.422Z,47.68
2018-05-26T11:32:54.218Z,48.33
2018-05-26T11:33:54.208Z,47.58
2018-05-26T11:34:54.345Z,47.74
2018-05-26T11:35:54.197Z,46.27
2018-05-26T11:36:54.212Z,47.66
2018-05-26T11:37:54.356Z,45.41
2018-05-26T11:38:54.193Z,46.38
2018-05-26T11:39:54.184Z,46.37
2018-05-26T11:40:54.325Z,46.74
2018-05-26T11:41:54.352Z,46.21
2018-05-26T11:42:54.209Z,46.65
2018-05-26T11:43:54.219Z,46.52
2018-05-26T11:44:54.231Z,47.18
2018-05-26T11:45:54.213Z,46.7
2018-05-26T11:46:54.313Z,47.1
2018-05-26T11:47:54.328Z,46.5
2018-05-26T11:48:54.224Z,46.74
2018-05-26T11:49:54.335Z,46.44
2018-05-26T11:50:54.196Z,46.47
2018-05-26T11:51:54.198Z,45.45
2018-05-26T11:52:54.361Z,46.22
2018-05-26T11:53:54.233Z,46.06
2018-05-26T11:54:54.207Z,46.49
2018-05-26T11:55:54.274Z,46.47
2018-05-26T11:56:54.190Z,47.46
2018-05-26T11:57:54.203Z,46.08
2018-05-26T11:58:54.298Z,46.32
2018-05-26T11:59:54.208Z,45.4
2018-05-26T12:00:54.211Z,45.37
2018-05-26T12:01:54.346Z,46.28
2018-05-26T12:02:54.425Z,46.09
2018-05-26T12:03:54.198Z,47.44
2018-05-26T12:04:54.338Z,47.38
2018-05-26T12:05:54.203Z,47.4
2018-05-26T12:06:54.386Z,46.73
2018-05-26T12:07:54.252Z,46.05
2018-05-26T12:08:54.202Z,45.98
2018-05-26T12:09:54.185Z,45.93
2018-05-26T12:10:54.413Z,45.28
2018-05-26T12:11:54.216Z,46.08
2018-05-26T12:12:54.418Z,44.17
2018-05-26T12:13:54.293Z,43.42
2018-05-26T12:14:54.214Z,43.13
2018-05-26T12:15:54.205Z,43.74
2018-05-26T12:16:54.517Z,43.89
2018-05-26T12:17:54.423Z,44.16
2018-05-26T12:18:54.234Z,44.58
2018-05-26T12:19:54.339Z,44.44
2018-05-26T12:20:54.307Z,44.39
2018-05-26T12:21:54.282Z,44.46
2018-05-26T12:22:54.258Z,44.74
2018-05-26T12:23:54.182Z,44.59
2018-05-26T12:24:54.279Z,45.78
2018-05-26T12:25:54.204Z,45.33
2018-05-26T12:26:54.209Z,45.78
2018-05-26T12:27:54.205Z,45.83
2018-05-26T12:28:54.247Z,44.77
2018-05-26T12:29:54.203Z,44.13
2018-05-26T12:30:54.199Z,44.54
2018-05-26T12:31:54.323Z,45.99
2018-05-26T12:32:54.633Z,45.38
2018-05-26T12:33:54.236Z,45.72
2018-05-26T12:34:55.365Z,44.66
2018-05-26T12:35:54.206Z,43.96
2018-05-26T12:36:54.194Z,42.77
2018-05-26T12:37:56.305Z,42.49
2018-05-26T12:38:54.180Z,43.2
2018-05-26T12:39:54.188Z,43.07
2018-05-26T12:40:54.381Z,42.9
2018-05-26T12:41:54.402Z,42.63
2018-05-26T12:42:54.218Z,42.65
2018-05-26T12:43:54.301Z,43.06
2018-05-26T12:44:54.708Z,42.59
2018-05-26T12:45:54.209Z,42.35
2018-05-26T12:46:54.316Z,43.5
2018-05-26T12:47:54.215Z,44.17
2018-05-26T12:48:54.220Z,43.8
2018-05-26T12:49:54.344Z,44.2
2018-05-26T12:50:54.191Z,44.25
2018-05-26T12:51:54.350Z,43.27
2018-05-26T12:52:54.212Z,44.26
2018-05-26T12:53:54.184Z,44.04
2018-05-26T12:54:54.199Z,43.61
2018-05-26T12:55:54.217Z,44.53